地図

経路データ

SID SEASON NUMBER BASIN SUBBASIN NAME ISO_TIME NATURE LAT LON WMO_WIND WMO_PRES WMO_AGENCY TRACK_TYPE DIST2LAND LANDFALL IFLAG USA_AGENCY USA_ATCF_ID USA_LAT USA_LON USA_RECORD USA_STATUS USA_WIND USA_PRES USA_SSHS USA_R34_NE USA_R34_SE USA_R34_SW USA_R34_NW USA_R50_NE USA_R50_SE USA_R50_SW USA_R50_NW USA_R64_NE USA_R64_SE USA_R64_SW USA_R64_NW USA_POCI USA_ROCI USA_RMW USA_EYE TOKYO_LAT TOKYO_LON TOKYO_GRADE TOKYO_WIND TOKYO_PRES TOKYO_R50_DIR TOKYO_R50_LONG TOKYO_R50_SHORT TOKYO_R30_DIR TOKYO_R30_LONG TOKYO_R30_SHORT TOKYO_LAND CMA_LAT CMA_LON CMA_CAT CMA_WIND CMA_PRES HKO_LAT HKO_LON HKO_CAT HKO_WIND HKO_PRES NEWDELHI_LAT NEWDELHI_LON NEWDELHI_GRADE NEWDELHI_WIND NEWDELHI_PRES NEWDELHI_CI NEWDELHI_DP NEWDELHI_POCI REUNION_LAT REUNION_LON REUNION_TYPE REUNION_WIND REUNION_PRES REUNION_TNUM REUNION_CI REUNION_RMW REUNION_R34_NE REUNION_R34_SE REUNION_R34_SW REUNION_R34_NW REUNION_R50_NE REUNION_R50_SE REUNION_R50_SW REUNION_R50_NW REUNION_R64_NE REUNION_R64_SE REUNION_R64_SW REUNION_R64_NW BOM_LAT BOM_LON BOM_TYPE BOM_WIND BOM_PRES BOM_TNUM BOM_CI BOM_RMW BOM_R34_NE BOM_R34_SE BOM_R34_SW BOM_R34_NW BOM_R50_NE BOM_R50_SE BOM_R50_SW BOM_R50_NW BOM_R64_NE BOM_R64_SE BOM_R64_SW BOM_R64_NW BOM_ROCI BOM_POCI BOM_EYE BOM_POS_METHOD BOM_PRES_METHOD NADI_LAT NADI_LON NADI_CAT NADI_WIND NADI_PRES WELLINGTON_LAT WELLINGTON_LON WELLINGTON_WIND WELLINGTON_PRES DS824_LAT DS824_LON DS824_STAGE DS824_WIND DS824_PRES TD9636_LAT TD9636_LON TD9636_STAGE TD9636_WIND TD9636_PRES TD9635_LAT TD9635_LON TD9635_WIND TD9635_PRES TD9635_ROCI NEUMANN_LAT NEUMANN_LON NEUMANN_CLASS NEUMANN_WIND NEUMANN_PRES MLC_LAT MLC_LON MLC_CLASS MLC_WIND MLC_PRES USA_GUST BOM_GUST BOM_GUST_PER REUNION_GUST REUNION_GUST_PER USA_SEAHGT USA_SEARAD_NE USA_SEARAD_SE USA_SEARAD_SW USA_SEARAD_NW STORM_SPEED STORM_DIR
1990272N10223 1990 95 EP MM POLO 1990-09-28 18:00:00 TS 9.70000 -137.100 25 1010 hurdat_epa main 2195 2159 O_____________ hurdat_epa EP201990 9.70000 -137.100 TD 25 1010 -1 8 328
1990272N10223 1990 95 EP MM POLO 1990-09-28 21:00:00 TS 10.0325 -137.310 main 2159 2117 P_____________ EP201990 10.0325 -137.310 TD 25 1010 -1 8 331
1990272N10223 1990 95 EP MM POLO 1990-09-29 00:00:00 TS 10.4000 -137.500 25 1010 hurdat_epa main 2117 2085 O_____________ hurdat_epa EP201990 10.4000 -137.500 TD 25 1010 -1 9 337
1990272N10223 1990 95 EP MM POLO 1990-09-29 03:00:00 TS 10.8275 -137.658 main 2076 2039 P_____________ EP201990 10.8275 -137.658 TD 27 1009 -1 10 342
1990272N10223 1990 95 EP MM POLO 1990-09-29 06:00:00 TS 11.3000 -137.800 30 1009 hurdat_epa main 2039 2002 O_____________ hurdat_epa EP201990 11.3000 -137.800 TD 30 1009 -1 10 343
1990272N10223 1990 95 EP MM POLO 1990-09-29 09:00:00 TS 11.7925 -137.958 main 1993 1958 P_____________ EP201990 11.7925 -137.958 TD 30 1009 -1 10 344
1990272N10223 1990 95 EP MM POLO 1990-09-29 12:00:00 TS 12.3000 -138.100 30 1009 hurdat_epa main 1958 1923 O_____________ hurdat_epa EP201990 12.3000 -138.100 TD 30 1009 -1 10 347
1990272N10223 1990 95 EP MM POLO 1990-09-29 15:00:00 TS 12.8075 -138.193 main 1923 1890 P_____________ EP201990 12.8075 -138.193 TD 37 1004 0 10 349
1990272N10223 1990 95 EP MM POLO 1990-09-29 18:00:00 TS 13.3000 -138.300 45 1000 hurdat_epa main 1890 1853 O_____________ hurdat_epa EP201990 13.3000 -138.300 TS 45 1000 0 10 343
1990272N10223 1990 95 EP MM POLO 1990-09-29 21:00:00 TS 13.7650 -138.492 main 1849 1812 P_____________ EP201990 13.7650 -138.492 TS 50 997 0 10 337
1990272N10223 1990 95 EP MM POLO 1990-09-30 00:00:00 TS 14.2000 -138.700 55 994 hurdat_epa main 1812 1786 O_____________ hurdat_epa EP201990 14.2000 -138.700 TS 55 994 0 9 338
1990272N10223 1990 95 EP MM POLO 1990-09-30 03:00:00 TS 14.6300 -138.858 main 1776 1751 P_____________ EP201990 14.6300 -138.858 TS 60 990 0 9 340
1990272N10223 1990 95 EP MM POLO 1990-09-30 06:00:00 TS 15.0000 -139.000 65 987 hurdat_epa main 1751 1730 O_____________ hurdat_epa EP201990 15.0000 -139.000 HU 65 987 1 7 336
1990272N10223 1990 95 EP MM POLO 1990-09-30 09:00:00 TS 15.2725 -139.150 main 1720 1703 P_____________ EP201990 15.2725 -139.150 HU 65 987 1 6 330
1990272N10223 1990 95 EP MM POLO 1990-09-30 12:00:00 TS 15.5000 -139.300 65 987 hurdat_epa main 1703 1682 O_____________ hurdat_epa EP201990 15.5000 -139.300 HU 65 987 1 6 332
1990272N10223 1990 95 EP MM POLO 1990-09-30 15:00:00 TS 15.7724 -139.420 main 1682 1656 P_____________ EP201990 15.7724 -139.420 HU 57 992 0 6 330
1990272N10223 1990 95 EP MM POLO 1990-09-30 18:00:00 TS 16.0000 -139.600 50 997 hurdat_epa main 1656 1622 O_____________ hurdat_epa EP201990 16.0000 -139.600 TS 50 997 0 6 309
1990272N10223 1990 95 EP MM POLO 1990-09-30 21:00:00 TS 16.1373 -139.883 main 1622 1578 P_____________ EP201990 16.1373 -139.883 TS 47 998 0 7 287
1990272N10223 1990 95 EP CP POLO 1990-10-01 00:00:00 TS 16.2077 -140.308 45 1000 hurdat_epa main 1578 1523 O_____________ hurdat_epa EP201990 16.2000 -140.300 TS 45 1000 0 9 278
1990272N10223 1990 95 EP CP POLO 1990-10-01 03:00:00 TS 16.2580 -140.829 main 1523 1472 P_____________ EP201990 16.2302 -140.870 TS 42 1001 0 10 273
1990272N10223 1990 95 EP CP POLO 1990-10-01 06:00:00 TS 16.2600 -141.360 40 1003 hurdat_epa main 1462 1424 O_____________ hurdat_epa EP201990 16.2000 -141.500 TS 40 1003 0 10 268
1990272N10223 1990 95 EP CP POLO 1990-10-01 09:00:00 TS 16.2217 -141.825 main 1424 1376 P_____________ EP201990 16.1374 -142.072 TS 35 1006 0 9 259
1990272N10223 1990 95 EP CP POLO 1990-10-01 12:00:00 TS 16.0750 -142.325 30 1009 hurdat_epa main 1376 1333 O_____________ hurdat_epa EP201990 16.0000 -142.600 TD 30 1009 -1 10 247
1990272N10223 1990 95 EP CP POLO 1990-10-01 15:00:00 TS 15.8190 -142.825 main 1336 1298 P_____________ EP201990 15.7751 -143.068 TD 27 1009 -1 11 239
1990272N10223 1990 95 EP CP POLO 1990-10-01 18:00:00 TS 15.5000 -143.325 25 1010 hurdat_epa main 1298 O_____________ hurdat_epa EP201990 15.5000 -143.500 TD 25 1010 -1 12 236

IBTrACS Databaseについて

本データベースは、米国NOAAが公開する1842年以降の世界の熱帯低気圧のベストトラックデータアーカイブInternational Best Track Archive for Climate Stewardship (IBTrACS)を、ウェブで閲覧しやすい形式に変換したものです。

最終更新日:2021-10-27